Time,TemperatureF,DewpointF,PressureIn,WindDirection,WindDirectionDegrees,WindSpeedMPH,WindSpeedGustMPH,Humidity,HourlyPrecipIn,Conditions,Clouds,dailyrainin,SolarRadiationWatts/m^2,SoftwareType,DateUTC
2013-04-07 00:05:00,42.6,33.9,30.34,SSW,200,5.0,7.0,71,0.00,,,0.00,0,Wunderground v.1.15,2013-04-07 04:05:00,
2013-04-07 00:15:00,42.6,33.5,30.34,SSW,200,4.0,5.0,70,0.00,,,0.00,0,Wunderground v.1.15,2013-04-07 04:15:00,
2013-04-07 00:20:00,42.7,33.6,30.34,SSW,201,5.0,5.0,70,0.00,,,0.00,0,Wunderground v.1.15,2013-04-07 04:20:00,
2013-04-07 00:30:00,42.7,33.9,30.33,SSW,201,4.0,4.0,71,0.00,,,0.00,0,Wunderground v.1.15,2013-04-07 04:30:00,
2013-04-07 00:40:00,42.7,33.6,30.34,SSW,201,4.0,7.0,70,0.00,,,0.00,0,Wunderground v.1.15,2013-04-07 04:40:00,
2013-04-07 00:45:00,42.8,33.7,30.34,SSW,201,4.0,7.0,70,0.00,,,0.00,0,Wunderground v.1.15,2013-04-07 04:45:00,
2013-04-07 00:55:00,42.9,33.4,30.34,SSW,201,5.0,7.0,69,0.00,,,0.00,0,Wunderground v.1.15,2013-04-07 04:55:00,
2013-04-07 01:00:00,42.9,33.4,30.34,SSW,201,4.0,4.0,69,0.00,,,0.00,0,Wunderground v.1.15,2013-04-07 05:00:00,
2013-04-07 01:10:00,43.0,33.2,30.34,SSW,201,5.0,6.0,68,0.00,,,0.00,0,Wunderground v.1.15,2013-04-07 05:10:00,
2013-04-07 01:20:00,43.1,33.3,30.33,SSW,202,5.0,5.0,68,0.00,,,0.00,0,Wunderground v.1.15,2013-04-07 05:20:00,
2013-04-07 01:30:00,43.1,33.3,30.33,SSW,202,4.0,4.0,68,0.00,,,0.00,0,Wunderground v.1.15,2013-04-07 05:30:00,
2013-04-07 01:35:00,43.1,33.3,30.33,SSW,201,4.0,4.0,68,0.00,,,0.00,0,Wunderground v.1.15,2013-04-07 05:35:00,
2013-04-07 01:45:00,43.0,33.5,30.33,SSW,201,4.0,4.0,69,0.00,,,0.00,0,Wunderground v.1.15,2013-04-07 05:45:00,
2013-04-07 01:55:00,43.0,33.9,30.32,SSW,201,3.0,4.0,70,0.00,,,0.00,0,Wunderground v.1.15,2013-04-07 05:55:00,
2013-04-07 02:00:00,43.0,34.2,30.32,SSW,201,3.0,5.0,71,0.00,,,0.00,0,Wunderground v.1.15,2013-04-07 06:00:00,
2013-04-07 02:10:00,43.1,34.3,30.32,SSW,201,3.0,3.0,71,0.00,,,0.00,0,Wunderground v.1.15,2013-04-07 06:10:00,
2013-04-07 02:15:00,43.1,34.7,30.32,SSW,201,3.0,3.0,72,0.00,,,0.00,0,Wunderground v.1.15,2013-04-07 06:15:00,
2013-04-07 02:25:00,43.1,34.3,30.32,SSW,201,3.0,4.0,71,0.00,,,0.00,0,Wunderground v.1.15,2013-04-07 06:25:00,
2013-04-07 02:35:00,43.1,34.7,30.31,SSW,201,3.0,3.0,72,0.00,,,0.00,0,Wunderground v.1.15,2013-04-07 06:35:00,
2013-04-07 02:45:00,43.0,34.6,30.30,SSW,201,2.0,3.0,72,0.00,,,0.00,0,Wunderground v.1.15,2013-04-07 06:45:00,
2013-04-07 02:55:00,42.9,34.8,30.30,SSW,201,2.0,2.0,73,0.00,,,0.00,0,Wunderground v.1.15,2013-04-07 06:55:00,
2013-04-07 03:00:00,42.9,34.8,30.29,SSW,201,2.0,2.0,73,0.00,,,0.00,0,Wunderground v.1.15,2013-04-07 07:00:00,
2013-04-07 03:10:00,42.8,35.1,30.29,SSW,201,3.0,4.0,74,0.00,,,0.00,0,Wunderground v.1.15,2013-04-07 07:10:00,
2013-04-07 03:20:00,42.8,35.1,30.29,SSW,201,2.0,2.0,74,0.00,,,0.00,0,Wunderground v.1.15,2013-04-07 07:20:00,
2013-04-07 03:25:00,42.7,35.0,30.29,SSW,201,1.0,2.0,74,0.00,,,0.00,0,Wunderground v.1.15,2013-04-07 07:25:00,
2013-04-07 03:35:00,42.6,35.2,30.29,SSW,201,1.0,2.0,75,0.00,,,0.00,0,Wunderground v.1.15,2013-04-07 07:35:00,
2013-04-07 03:45:00,42.5,35.1,30.29,SSW,201,1.0,1.0,75,0.00,,,0.00,0,Wunderground v.1.15,2013-04-07 07:45:00,
2013-04-07 03:55:00,42.3,34.9,30.29,SSW,201,0.0,1.0,75,0.00,,,0.00,0,Wunderground v.1.15,2013-04-07 07:55:00,
2013-04-07 04:00:00,42.1,34.7,30.29,SSW,201,0.0,0.0,75,0.00,,,0.00,0,Wunderground v.1.15,2013-04-07 08:00:00,
2013-04-07 04:10:00,42.1,35.1,30.29,SSW,201,0.0,0.0,76,0.00,,,0.00,0,Wunderground v.1.15,2013-04-07 08:10:00,
2013-04-07 04:15:00,42.1,35.1,30.29,SSW,201,0.0,1.0,76,0.00,,,0.00,0,Wunderground v.1.15,2013-04-07 08:15:00,
2013-04-07 04:25:00,42.2,35.2,30.29,SSW,201,0.0,0.0,76,0.00,,,0.00,0,Wunderground v.1.15,2013-04-07 08:25:00,
2013-04-07 04:30:00,42.3,35.3,30.29,SSW,201,0.0,0.0,76,0.00,,,0.00,0,Wunderground v.1.15,2013-04-07 08:30:00,
2013-04-07 04:40:00,43.1,36.7,30.29,South,186,3.0,5.0,78,0.00,,,0.00,0,Wunderground v.1.15,2013-04-07 08:40:00,
2013-04-07 04:45:00,43.5,36.8,30.29,South,183,5.0,6.0,77,0.00,,,0.00,0,Wunderground v.1.15,2013-04-07 08:45:00,
2013-04-07 04:55:00,44.0,37.6,30.28,South,173,6.0,8.0,78,0.00,,,0.00,0,Wunderground v.1.15,2013-04-07 08:55:00,
2013-04-07 05:00:00,44.1,37.7,30.28,SSE,163,8.0,9.0,78,0.00,,,0.00,0,Wunderground v.1.15,2013-04-07 09:00:00,
2013-04-07 05:10:00,44.1,37.3,30.28,SSE,161,9.0,10.0,77,0.00,,,0.00,0,Wunderground v.1.15,2013-04-07 09:10:00,
2013-04-07 05:20:00,44.3,37.9,30.28,SSE,163,9.0,10.0,78,0.00,,,0.00,0,Wunderground v.1.15,2013-04-07 09:20:00,
2013-04-07 05:25:00,44.3,37.9,30.28,SSE,160,10.0,10.0,78,0.00,,,0.00,0,Wunderground v.1.15,2013-04-07 09:25:00,
2013-04-07 05:35:00,44.3,37.9,30.29,SSE,159,9.0,9.0,78,0.00,,,0.00,0,Wunderground v.1.15,2013-04-07 09:35:00,
2013-04-07 05:45:00,44.3,37.9,30.29,SSE,159,6.0,8.0,78,0.00,,,0.00,0,Wunderground v.1.15,2013-04-07 09:45:00,
2013-04-07 05:55:00,44.3,37.9,30.29,SSE,157,6.0,7.0,78,0.00,,,0.00,0,Wunderground v.1.15,2013-04-07 09:55:00,
2013-04-07 06:00:00,44.3,37.9,30.29,SSE,157,7.0,9.0,78,0.00,,,0.00,0,Wunderground v.1.15,2013-04-07 10:00:00,
2013-04-07 06:10:00,44.4,38.0,30.29,SSE,155,7.0,7.0,78,0.00,,,0.00,0,Wunderground v.1.15,2013-04-07 10:10:00,
2013-04-07 06:20:00,44.4,38.0,30.29,SSE,155,8.0,8.0,78,0.00,,,0.00,0,Wunderground v.1.15,2013-04-07 10:20:00,
2013-04-07 06:25:00,44.5,38.1,30.29,SSE,155,7.0,8.0,78,0.00,,,0.00,0,Wunderground v.1.15,2013-04-07 10:25:00,
2013-04-07 06:35:00,44.5,38.4,30.29,SSE,157,5.0,7.0,79,0.00,,,0.00,0,Wunderground v.1.15,2013-04-07 10:35:00,
2013-04-07 06:45:00,44.6,38.5,30.29,SSE,151,6.0,6.0,79,0.00,,,0.00,7,Wunderground v.1.15,2013-04-07 10:45:00,
2013-04-07 06:55:00,44.7,38.9,30.29,SSE,154,4.0,8.0,80,0.00,,,0.00,14,Wunderground v.1.15,2013-04-07 10:55:00,
2013-04-07 07:00:00,44.7,38.9,30.29,SSE,163,5.0,5.0,80,0.00,,,0.00,21,Wunderground v.1.15,2013-04-07 11:00:00,
2013-04-07 07:10:00,44.6,38.8,30.29,SSE,165,4.0,4.0,80,0.00,,,0.00,49,Wunderground v.1.15,2013-04-07 11:10:00,
2013-04-07 07:20:00,44.6,38.8,30.30,SSE,165,4.0,4.0,80,0.00,,,0.00,69,Wunderground v.1.15,2013-04-07 11:20:00,
2013-04-07 07:30:00,44.8,39.3,30.30,SSE,165,3.0,4.0,81,0.00,,,0.00,125,Wunderground v.1.15,2013-04-07 11:30:00,
2013-04-07 07:35:00,45.0,39.2,30.30,SSE,165,4.0,4.0,80,0.00,,,0.00,153,Wunderground v.1.15,2013-04-07 11:35:00,
2013-04-07 07:40:00,45.2,39.4,30.30,SSE,165,4.0,6.0,80,0.00,,,0.00,151,Wunderground v.1.15,2013-04-07 11:40:00,
2013-04-07 07:50:00,45.6,39.5,30.30,SSE,167,5.0,5.0,79,0.00,,,0.00,148,Wunderground v.1.15,2013-04-07 11:50:00,
2013-04-07 07:55:00,45.7,39.6,30.31,SSE,167,5.0,5.0,79,0.00,,,0.00,128,Wunderground v.1.15,2013-04-07 11:55:00,
2013-04-07 08:00:00,45.7,39.6,30.31,SSE,167,5.0,5.0,79,0.00,,,0.00,105,Wunderground v.1.15,2013-04-07 12:00:00,
2013-04-07 08:10:00,45.9,39.4,30.31,South,171,5.0,5.0,78,0.00,,,0.00,258,Wunderground v.1.15,2013-04-07 12:10:00,
2013-04-07 08:20:00,46.3,39.8,30.30,South,176,7.0,9.0,78,0.00,,,0.00,292,Wunderground v.1.15,2013-04-07 12:20:00,
2013-04-07 08:25:00,46.5,40.0,30.30,SSW,192,8.0,9.0,78,0.00,,,0.00,316,Wunderground v.1.15,2013-04-07 12:25:00,
2013-04-07 08:35:00,46.6,40.1,30.30,SSW,205,7.0,8.0,78,0.00,,,0.00,311,Wunderground v.1.15,2013-04-07 12:35:00,
2013-04-07 08:40:00,46.9,40.4,30.30,SSW,207,7.0,8.0,78,0.00,,,0.00,338,Wunderground v.1.15,2013-04-07 12:40:00,
2013-04-07 08:50:00,46.9,40.7,30.29,SSW,211,8.0,10.0,79,0.00,,,0.00,380,Wunderground v.1.15,2013-04-07 12:50:00,
2013-04-07 08:55:00,47.0,40.8,30.29,SSW,212,8.0,10.0,79,0.00,,,0.00,397,Wunderground v.1.15,2013-04-07 12:55:00,
2013-04-07 09:00:00,47.3,40.8,30.29,SSW,213,7.0,7.0,78,0.00,,,0.00,417,Wunderground v.1.15,2013-04-07 13:00:00,
2013-04-07 09:10:00,47.6,40.7,30.29,SW,218,9.0,9.0,77,0.00,,,0.00,445,Wunderground v.1.15,2013-04-07 13:10:00,
2013-04-07 09:20:00,47.9,40.7,30.28,SW,221,10.0,10.0,76,0.00,,,0.00,480,Wunderground v.1.15,2013-04-07 13:20:00,
2013-04-07 09:25:00,47.8,40.6,30.28,SW,215,10.0,10.0,76,0.00,,,0.00,492,Wunderground v.1.15,2013-04-07 13:25:00,
2013-04-07 09:35:00,48.1,40.9,30.29,SW,222,9.0,9.0,76,0.00,,,0.00,522,Wunderground v.1.15,2013-04-07 13:35:00,
2013-04-07 09:40:00,48.1,41.2,30.29,SW,226,9.0,9.0,77,0.00,,,0.00,534,Wunderground v.1.15,2013-04-07 13:40:00,
2013-04-07 09:50:00,48.0,41.5,30.28,SW,222,9.0,11.0,78,0.00,,,0.00,563,Wunderground v.1.15,2013-04-07 13:50:00,
2013-04-07 09:55:00,48.2,41.7,30.28,SSE,159,10.0,11.0,78,0.00,,,0.00,571,Wunderground v.1.15,2013-04-07 13:55:00,
2013-04-07 10:00:00,48.6,42.0,30.28,SW,217,10.0,12.0,78,0.00,,,0.00,591,Wunderground v.1.15,2013-04-07 14:00:00,
2013-04-07 10:10:00,48.7,42.1,30.28,SW,224,11.0,13.0,78,0.00,,,0.00,615,Wunderground v.1.15,2013-04-07 14:10:00,
2013-04-07 10:15:00,49.0,42.1,30.28,SW,221,11.0,13.0,77,0.00,,,0.00,629,Wunderground v.1.15,2013-04-07 14:15:00,
2013-04-07 10:20:00,49.2,42.0,30.28,SW,223,10.0,13.0,76,0.00,,,0.00,643,Wunderground v.1.15,2013-04-07 14:20:00,
2013-04-07 10:25:00,49.2,42.0,30.28,SW,223,11.0,13.0,76,0.00,,,0.00,654,Wunderground v.1.15,2013-04-07 14:25:00,
2013-04-07 10:35:00,49.7,42.8,30.28,SW,214,10.0,11.0,77,0.00,,,0.00,679,Wunderground v.1.15,2013-04-07 14:35:00,
2013-04-07 10:40:00,50.1,42.8,30.28,SSE,151,9.0,9.0,76,0.00,,,0.00,687,Wunderground v.1.15,2013-04-07 14:40:00,
2013-04-07 10:45:00,50.4,43.1,30.28,SW,218,8.0,9.0,76,0.00,,,0.00,698,Wunderground v.1.15,2013-04-07 14:45:00,
2013-04-07 10:50:00,50.7,43.1,30.27,SW,219,8.0,9.0,75,0.00,,,0.00,708,Wunderground v.1.15,2013-04-07 14:50:00,
2013-04-07 10:55:00,50.9,42.9,30.27,SSE,167,9.0,9.0,74,0.00,,,0.00,722,Wunderground v.1.15,2013-04-07 14:55:00,
2013-04-07 11:00:00,50.6,43.0,30.27,SW,234,9.0,9.0,75,0.00,,,0.00,735,Wunderground v.1.15,2013-04-07 15:00:00,
2013-04-07 11:10:00,50.9,43.3,30.26,WSW,239,10.0,12.0,75,0.00,,,0.00,749,Wunderground v.1.15,2013-04-07 15:10:00,
2013-04-07 11:15:00,51.0,43.4,30.26,SW,222,10.0,12.0,75,0.00,,,0.00,759,Wunderground v.1.15,2013-04-07 15:15:00,
2013-04-07 11:25:00,51.0,43.7,30.26,SSE,157,10.0,12.0,76,0.00,,,0.00,775,Wunderground v.1.15,2013-04-07 15:25:00,
2013-04-07 11:35:00,51.0,43.7,30.25,SW,224,10.0,11.0,76,0.00,,,0.00,795,Wunderground v.1.15,2013-04-07 15:35:00,
2013-04-07 11:45:00,51.0,43.7,30.25,South,175,10.0,12.0,76,0.00,,,0.00,805,Wunderground v.1.15,2013-04-07 15:45:00,
2013-04-07 11:55:00,50.8,43.8,30.24,South,176,8.0,8.0,77,0.00,,,0.00,816,Wunderground v.1.15,2013-04-07 15:55:00,
2013-04-07 12:00:00,50.8,44.2,30.24,SSE,148,8.0,8.0,78,0.00,,,0.00,830,Wunderground v.1.15,2013-04-07 16:00:00,
2013-04-07 12:10:00,51.1,44.5,30.23,SSW,203,8.0,8.0,78,0.00,,,0.00,837,Wunderground v.1.15,2013-04-07 16:10:00,
2013-04-07 12:15:00,51.2,44.6,30.23,SW,221,9.0,15.0,78,0.00,,,0.00,840,Wunderground v.1.15,2013-04-07 16:15:00,
2013-04-07 12:25:00,51.2,44.2,30.22,SW,221,11.0,15.0,77,0.00,,,0.00,847,Wunderground v.1.15,2013-04-07 16:25:00,
2013-04-07 12:35:00,51.2,44.6,30.22,SW,229,11.0,17.0,78,0.00,,,0.00,849,Wunderground v.1.15,2013-04-07 16:35:00,
2013-04-07 12:45:00,51.0,44.7,30.21,SW,217,10.0,10.0,79,0.00,,,0.00,856,Wunderground v.1.15,2013-04-07 16:45:00,
2013-04-07 12:50:00,51.2,44.9,30.21,South,173,11.0,11.0,79,0.00,,,0.00,860,Wunderground v.1.15,2013-04-07 16:50:00,
2013-04-07 12:55:00,51.5,44.9,30.20,SW,214,11.0,11.0,78,0.00,,,0.00,861,Wunderground v.1.15,2013-04-07 16:55:00,
2013-04-07 13:00:00,51.6,45.3,30.20,SSW,199,10.0,16.0,79,0.00,,,0.00,865,Wunderground v.1.15,2013-04-07 17:00:00,
2013-04-07 13:10:00,51.4,45.1,30.19,SW,223,10.0,18.0,79,0.00,,,0.00,759,Wunderground v.1.15,2013-04-07 17:10:00,
2013-04-07 13:15:00,51.3,45.0,30.19,SW,215,12.0,18.0,79,0.00,,,0.00,879,Wunderground v.1.15,2013-04-07 17:15:00,
2013-04-07 13:25:00,51.2,44.9,30.18,SW,225,14.0,17.0,79,0.00,,,0.00,817,Wunderground v.1.15,2013-04-07 17:25:00,
2013-04-07 13:35:00,51.4,45.1,30.18,SSW,209,14.0,15.0,79,0.00,,,0.00,846,Wunderground v.1.15,2013-04-07 17:35:00,
2013-04-07 13:40:00,51.2,45.2,30.18,SW,223,13.0,15.0,80,0.00,,,0.00,853,Wunderground v.1.15,2013-04-07 17:40:00,
2013-04-07 13:55:00,51.4,45.4,30.17,SW,227,13.0,15.0,80,0.00,,,0.00,784,Wunderground v.1.15,2013-04-07 17:55:00,
2013-04-07 14:00:00,51.5,45.5,30.17,SW,227,11.0,12.0,80,0.00,,,0.00,803,Wunderground v.1.15,2013-04-07 18:00:00,
2013-04-07 14:10:00,51.9,45.6,30.16,South,183,12.0,12.0,79,0.00,,,0.00,763,Wunderground v.1.15,2013-04-07 18:10:00,
2013-04-07 14:20:00,52.2,45.9,30.15,ESE,112,11.0,11.0,79,0.00,,,0.00,589,Wunderground v.1.15,2013-04-07 18:20:00,
2013-04-07 14:30:00,51.8,45.5,30.15,SW,226,11.0,11.0,79,0.00,,,0.00,733,Wunderground v.1.15,2013-04-07 18:30:00,
2013-04-07 14:40:00,51.7,45.7,30.14,SW,225,11.0,15.0,80,0.00,,,0.00,687,Wunderground v.1.15,2013-04-07 18:40:00,
2013-04-07 14:45:00,51.6,46.0,30.14,SW,218,12.0,15.0,81,0.00,,,0.00,573,Wunderground v.1.15,2013-04-07 18:45:00,
2013-04-07 14:55:00,52.0,46.3,30.13,SW,219,14.0,20.0,81,0.00,,,0.00,534,Wunderground v.1.15,2013-04-07 18:55:00,
2013-04-07 15:00:00,52.0,46.0,30.13,SW,221,14.0,18.0,80,0.00,,,0.00,603,Wunderground v.1.15,2013-04-07 19:00:00,
2013-04-07 15:10:00,52.4,46.4,30.12,SSW,209,14.0,14.0,80,0.00,,,0.00,497,Wunderground v.1.15,2013-04-07 19:10:00,
2013-04-07 15:15:00,52.2,46.2,30.12,SW,223,13.0,14.0,80,0.00,,,0.00,492,Wunderground v.1.15,2013-04-07 19:15:00,
2013-04-07 15:25:00,52.2,46.2,30.11,SW,219,14.0,14.0,80,0.00,,,0.00,582,Wunderground v.1.15,2013-04-07 19:25:00,
2013-04-07 15:35:00,52.2,46.2,30.11,SW,223,15.0,15.0,80,0.00,,,0.00,418,Wunderground v.1.15,2013-04-07 19:35:00,
2013-04-07 15:40:00,52.0,46.0,30.11,SW,223,14.0,14.0,80,0.00,,,0.00,318,Wunderground v.1.15,2013-04-07 19:40:00,
2013-04-07 15:50:00,51.9,46.3,30.11,SW,215,12.0,12.0,81,0.00,,,0.00,306,Wunderground v.1.15,2013-04-07 19:50:00,
2013-04-07 16:00:00,51.7,46.4,30.11,SSW,213,13.0,13.0,82,0.00,,,0.00,462,Wunderground v.1.15,2013-04-07 20:00:00,
2013-04-07 16:10:00,51.5,46.2,30.10,SSW,194,12.0,12.0,82,0.00,,,0.00,248,Wunderground v.1.15,2013-04-07 20:10:00,
2013-04-07 16:20:00,51.3,46.0,30.11,SW,220,11.0,13.0,82,0.00,,,0.00,204,Wunderground v.1.15,2013-04-07 20:20:00,
2013-04-07 16:25:00,51.1,46.1,30.10,SW,215,11.0,13.0,83,0.00,,,0.00,236,Wunderground v.1.15,2013-04-07 20:25:00,
2013-04-07 16:30:00,51.6,46.9,30.11,SSW,213,12.0,12.0,84,0.00,,,0.00,357,Wunderground v.1.15,2013-04-07 20:30:00,
2013-04-07 16:40:00,52.1,46.8,30.10,SW,218,11.0,13.0,82,0.00,,,0.00,332,Wunderground v.1.15,2013-04-07 20:40:00,
2013-04-07 16:50:00,52.0,46.3,30.10,SSW,212,12.0,14.0,81,0.00,,,0.00,313,Wunderground v.1.15,2013-04-07 20:50:00,
2013-04-07 16:55:00,52.3,47.0,30.10,SW,222,12.0,14.0,82,0.00,,,0.00,320,Wunderground v.1.15,2013-04-07 20:55:00,
2013-04-07 17:00:00,52.5,46.8,30.10,SSW,209,12.0,12.0,81,0.00,,,0.00,374,Wunderground v.1.15,2013-04-07 21:00:00,
2013-04-07 17:10:00,53.3,47.3,30.09,SW,223,12.0,13.0,80,0.00,,,0.00,473,Wunderground v.1.15,2013-04-07 21:10:00,
2013-04-07 17:25:00,57.9,48.2,30.07,SSW,209,12.0,12.0,70,0.00,,,0.00,371,Wunderground v.1.15,2013-04-07 21:25:00,
2013-04-07 17:30:00,58.3,47.4,30.07,South,188,12.0,12.0,67,0.00,,,0.00,374,Wunderground v.1.15,2013-04-07 21:30:00,
2013-04-07 17:40:00,57.7,46.8,30.07,SSW,209,10.0,12.0,67,0.00,,,0.00,325,Wunderground v.1.15,2013-04-07 21:40:00,
2013-04-07 17:55:00,55.4,46.9,30.06,SW,226,11.0,16.0,73,0.00,,,0.00,308,Wunderground v.1.15,2013-04-07 21:55:00,
2013-04-07 18:00:00,55.7,47.5,30.05,SW,222,11.0,17.0,74,0.00,,,0.00,281,Wunderground v.1.15,2013-04-07 22:00:00,
2013-04-07 18:10:00,54.3,46.5,30.05,SW,223,14.0,17.0,75,0.00,,,0.00,237,Wunderground v.1.15,2013-04-07 22:10:00,
2013-04-07 18:25:00,55.5,48.4,30.04,SSW,213,11.0,11.0,77,0.00,,,0.00,158,Wunderground v.1.15,2013-04-07 22:25:00,
2013-04-07 18:30:00,56.6,48.4,30.04,SSW,210,12.0,12.0,74,0.00,,,0.00,135,Wunderground v.1.15,2013-04-07 22:30:00,
2013-04-07 18:40:00,57.5,47.8,30.05,SSW,209,10.0,14.0,70,0.00,,,0.00,88,Wunderground v.1.15,2013-04-07 22:40:00,
2013-04-07 18:45:00,57.5,47.4,30.07,WSW,246,10.0,14.0,69,0.00,,,0.00,76,Wunderground v.1.15,2013-04-07 22:45:00,
2013-04-07 18:55:00,57.7,46.8,30.07,WSW,248,8.0,11.0,67,0.00,,,0.00,53,Wunderground v.1.15,2013-04-07 22:55:00,
2013-04-07 19:00:00,57.8,47.3,30.07,South,169,7.0,10.0,68,0.00,,,0.00,40,Wunderground v.1.15,2013-04-07 23:00:00,
2013-04-07 19:10:00,57.9,47.0,30.08,SSW,212,8.0,8.0,67,0.00,,,0.00,28,Wunderground v.1.15,2013-04-07 23:10:00,
2013-04-07 19:15:00,57.8,46.5,30.08,SW,220,7.0,10.0,66,0.00,,,0.00,19,Wunderground v.1.15,2013-04-07 23:15:00,
2013-04-07 19:25:00,57.6,46.3,30.07,SSW,212,9.0,10.0,66,0.00,,,0.00,9,Wunderground v.1.15,2013-04-07 23:25:00,
2013-04-07 19:35:00,57.3,46.4,30.07,SW,219,9.0,9.0,67,0.00,,,0.00,0,Wunderground v.1.15,2013-04-07 23:35:00,
2013-04-07 19:45:00,57.1,46.6,30.07,SSW,206,8.0,9.0,68,0.00,,,0.00,0,Wunderground v.1.15,2013-04-07 23:45:00,
2013-04-07 19:55:00,56.6,46.9,30.07,SW,214,8.0,11.0,70,0.00,,,0.00,0,Wunderground v.1.15,2013-04-07 23:55:00,
2013-04-07 20:00:00,56.4,47.1,30.07,SSW,208,8.0,12.0,71,0.00,,,0.00,0,Wunderground v.1.15,2013-04-08 00:00:00,
2013-04-07 20:10:00,56.1,47.2,30.07,SSW,205,9.0,9.0,72,0.00,,,0.00,0,Wunderground v.1.15,2013-04-08 00:10:00,
2013-04-07 20:15:00,55.9,47.4,30.07,SSW,205,8.0,11.0,73,0.00,,,0.00,0,Wunderground v.1.15,2013-04-08 00:15:00,
2013-04-07 20:25:00,55.6,47.1,30.07,SSW,207,8.0,10.0,73,0.00,,,0.00,0,Wunderground v.1.15,2013-04-08 00:25:00,
2013-04-07 20:35:00,55.4,47.2,30.07,SSW,208,9.0,10.0,74,0.00,,,0.00,0,Wunderground v.1.15,2013-04-08 00:35:00,
2013-04-07 20:40:00,55.4,47.2,30.07,SSW,204,9.0,10.0,74,0.00,,,0.00,0,Wunderground v.1.15,2013-04-08 00:40:00,
2013-04-07 20:50:00,55.4,47.2,30.07,SSW,212,8.0,8.0,74,0.00,,,0.00,0,Wunderground v.1.15,2013-04-08 00:50:00,
2013-04-07 21:00:00,55.3,47.5,30.07,SW,225,9.0,9.0,75,0.00,,,0.00,0,Wunderground v.1.15,2013-04-08 01:00:00,
2013-04-07 21:10:00,55.1,47.3,30.08,SW,225,8.0,10.0,75,0.00,,,0.00,0,Wunderground v.1.15,2013-04-08 01:10:00,
2013-04-07 21:20:00,55.1,47.3,30.08,WSW,240,7.0,7.0,75,0.00,,,0.00,0,Wunderground v.1.15,2013-04-08 01:20:00,
2013-04-07 21:30:00,55.0,47.6,30.08,South,190,6.0,13.0,76,0.00,,,0.00,0,Wunderground v.1.15,2013-04-08 01:30:00,
2013-04-07 21:40:00,55.1,47.7,30.08,SSW,208,7.0,7.0,76,0.00,,,0.00,0,Wunderground v.1.15,2013-04-08 01:40:00,
2013-04-07 21:50:00,55.1,47.7,30.08,SSW,203,7.0,7.0,76,0.00,,,0.00,0,Wunderground v.1.15,2013-04-08 01:50:00,
2013-04-07 22:00:00,55.2,47.8,30.07,SW,215,7.0,7.0,76,0.00,,,0.00,0,Wunderground v.1.15,2013-04-08 02:00:00,
2013-04-07 22:05:00,55.3,47.9,30.08,SSW,209,8.0,8.0,76,0.00,,,0.00,0,Wunderground v.1.15,2013-04-08 02:05:00,
2013-04-07 22:10:00,55.3,47.5,30.08,SSW,210,7.0,7.0,75,0.00,,,0.00,0,Wunderground v.1.15,2013-04-08 02:10:00,
2013-04-07 22:20:00,55.1,47.7,30.08,SSW,208,6.0,6.0,76,0.00,,,0.00,0,Wunderground v.1.15,2013-04-08 02:20:00,
2013-04-07 22:30:00,55.1,47.7,30.08,SW,214,6.0,6.0,76,0.00,,,0.00,0,Wunderground v.1.15,2013-04-08 02:30:00,
2013-04-07 22:45:00,55.4,48.0,30.07,SSW,205,7.0,9.0,76,0.00,,,0.00,0,Wunderground v.1.15,2013-04-08 02:45:00,
2013-04-07 23:00:00,55.4,47.6,30.07,SW,215,6.0,11.0,75,0.00,,,0.00,0,Wunderground v.1.15,2013-04-08 03:00:00,
2013-04-07 23:10:00,55.3,47.5,30.07,SW,220,7.0,7.0,75,0.00,,,0.00,0,Wunderground v.1.15,2013-04-08 03:10:00,
2013-04-07 23:20:00,55.3,47.5,30.07,SSW,211,6.0,6.0,75,0.00,,,0.00,0,Wunderground v.1.15,2013-04-08 03:20:00,
2013-04-07 23:25:00,55.3,47.5,30.07,SW,217,6.0,6.0,75,0.00,,,0.00,0,Wunderground v.1.15,2013-04-08 03:25:00,
2013-04-07 23:30:00,55.4,47.6,30.07,SSW,213,6.0,7.0,75,0.00,,,0.00,0,Wunderground v.1.15,2013-04-08 03:30:00,
2013-04-07 23:40:00,55.5,47.3,30.07,SSW,211,6.0,6.0,74,0.00,,,0.00,0,Wunderground v.1.15,2013-04-08 03:40:00,
2013-04-07 23:45:00,55.6,47.4,30.07,SSW,210,6.0,6.0,74,0.00,,,0.00,0,Wunderground v.1.15,2013-04-08 03:45:00,
2013-04-07 23:50:00,55.5,47.3,30.07,SSW,202,6.0,12.0,74,0.00,,,0.00,0,Wunderground v.1.15,2013-04-08 03:50:00,